Marion, Texas
Current Conditions -  °F | °C
As of 6:58 AM on Friday 24 Oct 2014 (Local Time) from KRND Reporting Station
Clear Clear  
Wind Chill: 59°   Ceiling: Unl
Heat Index: 59°   Visibility: NA
Dew Point: 54°   Wind: 3mph
Humidity: 86%   Direction: 340°NNW
Pressure: 30.13"   Gusts: NA
Location:  29.57°N, 98.14°W
Report Text: KRND 241158Z AUTO 34003KT M CLR 15/12 A3013 RMK AO2 SLP198 T01480124 10185 20148 53003 RVRNO $
Loading
Personal Weather Stations






























Interactive Weather Map
Tropical Storm Tracking
New forecast layout! Learn more

10-Day Weather Forecast

Advertisements
Track Severe Weather on mobile